KSUW/SUW METAR and TAF weather

Enter ICAO airport designator
Station Type Date Time Source
KSUW METAR 2018/12/15 20:35 UTC NOAA

KSUW 152035Z AUTO 04004KT 10SM CLR 05/M02 A3004 RMK AO2 T00451020


Station Type Date Time Source
KSUW Decoded METAR 2018/12/15 20:35 UTC NOAA

Superior, Richard I. Bong Airport, WI, United States (KSUW) 46-41-23N 092-05-41W
Dec 15, 2018 - 03:35 PM EST / 2018.12.15 2035 UTC
Wind: from the NE (040 degrees) at 5 MPH (4 KT):0
Visibility: 10 mile(s):0
Sky conditions: clear
Temperature: 40.1 F (4.5 C)
Dew Point: 28.4 F (-2.0 C)
Relative Humidity: 62%
Pressure (altimeter): 30.04 in. Hg (1017 hPa)
ob: KSUW 152035Z AUTO 04004KT 10SM CLR 05/M02 A3004 RMK AO2 T00451020
cycle: 20

Station Type Date Time Source
KSUW TAF UTC NOAA

Error!


Example: see airport list